sensor_id;sensor_type;location;lat;lon;timestamp;pressure;altitude;pressure_sealevel;temperature;humidity
57644;BME280;43474;46.510;6.686;2023-04-08T00:02:19;96629.34;;;3.61;100.00
57644;BME280;43474;46.510;6.686;2023-04-08T00:04:45;96619.63;;;3.55;100.00
57644;BME280;43474;46.510;6.686;2023-04-08T00:07:11;96622.91;;;3.42;100.00
57644;BME280;43474;46.510;6.686;2023-04-08T00:09:36;96622.59;;;3.30;100.00
57644;BME280;43474;46.510;6.686;2023-04-08T00:12:03;96616.09;;;3.26;100.00
57644;BME280;43474;46.510;6.686;2023-04-08T00:14:29;96602.50;;;3.16;100.00
57644;BME280;43474;46.510;6.686;2023-04-08T00:16:54;96620.59;;;3.32;100.00
57644;BME280;43474;46.510;6.686;2023-04-08T00:19:20;96624.16;;;3.25;100.00
57644;BME280;43474;46.510;6.686;2023-04-08T00:21:46;96618.97;;;3.31;100.00
57644;BME280;43474;46.510;6.686;2023-04-08T00:24:12;96628.09;;;3.35;100.00
57644;BME280;43474;46.510;6.686;2023-04-08T00:26:38;96611.88;;;3.25;100.00
57644;BME280;43474;46.510;6.686;2023-04-08T00:29:03;96624.59;;;3.28;100.00
57644;BME280;43474;46.510;6.686;2023-04-08T00:31:29;96603.78;;;3.05;100.00
57644;BME280;43474;46.510;6.686;2023-04-08T00:33:55;96620.63;;;3.18;100.00
57644;BME280;43474;46.510;6.686;2023-04-08T00:36:21;96626.88;;;3.17;100.00
57644;BME280;43474;46.510;6.686;2023-04-08T00:38:46;96616.63;;;3.00;100.00
57644;BME280;43474;46.510;6.686;2023-04-08T00:41:12;96625.09;;;3.02;100.00
57644;BME280;43474;46.510;6.686;2023-04-08T00:43:38;96625.38;;;2.93;100.00
57644;BME280;43474;46.510;6.686;2023-04-08T00:46:04;96617.91;;;2.90;100.00
57644;BME280;43474;46.510;6.686;2023-04-08T00:48:29;96615.94;;;2.77;100.00
57644;BME280;43474;46.510;6.686;2023-04-08T00:50:56;96623.84;;;2.98;100.00
57644;BME280;43474;46.510;6.686;2023-04-08T00:53:21;96634.03;;;2.93;100.00
57644;BME280;43474;46.510;6.686;2023-04-08T00:55:47;96617.63;;;2.99;100.00
57644;BME280;43474;46.510;6.686;2023-04-08T00:58:13;96625.94;;;2.88;100.00
57644;BME280;43474;46.510;6.686;2023-04-08T01:00:41;96610.72;;;2.62;100.00
57644;BME280;43474;46.510;6.686;2023-04-08T01:03:26;96620.16;;;2.78;100.00
57644;BME280;43474;46.510;6.686;2023-04-08T01:06:24;96618.22;;;2.65;100.00
57644;BME280;43474;46.510;6.686;2023-04-08T01:08:53;96611.16;;;2.66;100.00
57644;BME280;43474;46.510;6.686;2023-04-08T01:11:19;96606.94;;;2.65;100.00
57644;BME280;43474;46.510;6.686;2023-04-08T01:13:48;96607.00;;;2.71;100.00
57644;BME280;43474;46.510;6.686;2023-04-08T01:16:16;96617.00;;;2.82;100.00
57644;BME280;43474;46.510;6.686;2023-04-08T01:18:43;96608.34;;;2.82;100.00
57644;BME280;43474;46.510;6.686;2023-04-08T01:21:10;96618.53;;;2.92;100.00
57644;BME280;43474;46.510;6.686;2023-04-08T01:23:52;96624.25;;;2.80;100.00
57644;BME280;43474;46.510;6.686;2023-04-08T01:26:22;96608.38;;;2.67;100.00
57644;BME280;43474;46.510;6.686;2023-04-08T01:28:49;96618.22;;;2.65;100.00
57644;BME280;43474;46.510;6.686;2023-04-08T01:31:17;96612.78;;;2.52;100.00
57644;BME280;43474;46.510;6.686;2023-04-08T01:33:43;96615.88;;;2.55;100.00
57644;BME280;43474;46.510;6.686;2023-04-08T01:36:09;96615.34;;;2.45;100.00
57644;BME280;43474;46.510;6.686;2023-04-08T01:38:35;96612.16;;;2.20;100.00
57644;BME280;43474;46.510;6.686;2023-04-08T01:41:02;96618.94;;;2.29;100.00
57644;BME280;43474;46.510;6.686;2023-04-08T01:43:29;96610.72;;;2.32;100.00
57644;BME280;43474;46.510;6.686;2023-04-08T01:45:57;96598.63;;;2.46;100.00
57644;BME280;43474;46.510;6.686;2023-04-08T01:48:23;96610.91;;;2.61;100.00
57644;BME280;43474;46.510;6.686;2023-04-08T01:50:50;96611.09;;;2.59;100.00
57644;BME280;43474;46.510;6.686;2023-04-08T01:53:16;96604.88;;;2.60;100.00
57644;BME280;43474;46.510;6.686;2023-04-08T01:55:43;96601.72;;;2.50;100.00
57644;BME280;43474;46.510;6.686;2023-04-08T01:58:11;96615.50;;;2.58;100.00
57644;BME280;43474;46.510;6.686;2023-04-08T02:00:42;96606.41;;;2.40;100.00
57644;BME280;43474;46.510;6.686;2023-04-08T02:03:11;96602.16;;;2.39;100.00
57644;BME280;43474;46.510;6.686;2023-04-08T02:05:38;96608.28;;;2.46;100.00
57644;BME280;43474;46.510;6.686;2023-04-08T02:08:04;96614.13;;;2.63;100.00
57644;BME280;43474;46.510;6.686;2023-04-08T02:10:30;96601.97;;;2.40;100.00
57644;BME280;43474;46.510;6.686;2023-04-08T02:12:55;96616.31;;;2.29;100.00
57644;BME280;43474;46.510;6.686;2023-04-08T02:15:21;96610.91;;;2.31;100.00
57644;BME280;43474;46.510;6.686;2023-04-08T02:18:24;96617.47;;;2.42;100.00
57644;BME280;43474;46.510;6.686;2023-04-08T02:21:06;96623.63;;;2.34;100.00
57644;BME280;43474;46.510;6.686;2023-04-08T02:23:37;96624.34;;;2.43;100.00
57644;BME280;43474;46.510;6.686;2023-04-08T02:26:06;96610.72;;;2.47;100.00
57644;BME280;43474;46.510;6.686;2023-04-08T02:28:34;96620.44;;;2.53;100.00
57644;BME280;43474;46.510;6.686;2023-04-08T02:31:01;96620.63;;;2.67;100.00
57644;BME280;43474;46.510;6.686;2023-04-08T02:33:27;96624.31;;;2.72;100.00
57644;BME280;43474;46.510;6.686;2023-04-08T02:35:55;96617.03;;;2.68;100.00
57644;BME280;43474;46.510;6.686;2023-04-08T02:38:21;96616.66;;;2.71;100.00
57644;BME280;43474;46.510;6.686;2023-04-08T02:40:49;96622.16;;;2.76;100.00
57644;BME280;43474;46.510;6.686;2023-04-08T02:43:15;96620.34;;;2.76;100.00
57644;BME280;43474;46.510;6.686;2023-04-08T02:45:41;96623.78;;;2.77;100.00
57644;BME280;43474;46.510;6.686;2023-04-08T02:48:07;96616.47;;;2.72;100.00
57644;BME280;43474;46.510;6.686;2023-04-08T02:50:33;96619.19;;;2.79;100.00
57644;BME280;43474;46.510;6.686;2023-04-08T02:52:58;96622.44;;;2.66;100.00
57644;BME280;43474;46.510;6.686;2023-04-08T02:55:24;96616.06;;;2.54;100.00
57644;BME280;43474;46.510;6.686;2023-04-08T02:57:50;96610.97;;;2.52;100.00
57644;BME280;43474;46.510;6.686;2023-04-08T03:00:16;96621.44;;;2.52;100.00
57644;BME280;43474;46.510;6.686;2023-04-08T03:02:41;96602.06;;;2.62;100.00
57644;BME280;43474;46.510;6.686;2023-04-08T03:05:07;96620.44;;;2.68;100.00
57644;BME280;43474;46.510;6.686;2023-04-08T03:07:34;96610.97;;;2.52;100.00
57644;BME280;43474;46.510;6.686;2023-04-08T03:09:59;96608.03;;;2.55;100.00
57644;BME280;43474;46.510;6.686;2023-04-08T03:12:25;96615.94;;;2.47;100.00
57644;BME280;43474;46.510;6.686;2023-04-08T03:14:53;96621.09;;;2.41;100.00
57644;BME280;43474;46.510;6.686;2023-04-08T03:17:20;96619.56;;;2.31;100.00
57644;BME280;43474;46.510;6.686;2023-04-08T03:19:46;96627.66;;;2.22;100.00
57644;BME280;43474;46.510;6.686;2023-04-08T03:22:12;96621.31;;;2.01;100.00
57644;BME280;43474;46.510;6.686;2023-04-08T03:24:38;96638.47;;;2.19;100.00
57644;BME280;43474;46.510;6.686;2023-04-08T03:27:04;96631.81;;;2.16;100.00
57644;BME280;43474;46.510;6.686;2023-04-08T03:29:30;96641.72;;;2.21;100.00
57644;BME280;43474;46.510;6.686;2023-04-08T03:31:56;96644.69;;;2.18;100.00
57644;BME280;43474;46.510;6.686;2023-04-08T03:34:22;96630.63;;;2.19;100.00
57644;BME280;43474;46.510;6.686;2023-04-08T03:36:47;96641.22;;;2.40;100.00
57644;BME280;43474;46.510;6.686;2023-04-08T03:39:13;96620.81;;;2.36;100.00
57644;BME280;43474;46.510;6.686;2023-04-08T03:41:38;96636.78;;;2.41;100.00
57644;BME280;43474;46.510;6.686;2023-04-08T03:44:04;96631.03;;;2.45;100.00
57644;BME280;43474;46.510;6.686;2023-04-08T03:46:29;96635.72;;;2.50;100.00
57644;BME280;43474;46.510;6.686;2023-04-08T03:48:55;96648.81;;;2.65;100.00
57644;BME280;43474;46.510;6.686;2023-04-08T03:51:20;96637.41;;;2.57;100.00
57644;BME280;43474;46.510;6.686;2023-04-08T03:53:46;96644.63;;;2.70;100.00
57644;BME280;43474;46.510;6.686;2023-04-08T03:56:13;96624.97;;;2.59;100.00
57644;BME280;43474;46.510;6.686;2023-04-08T03:58:39;96634.25;;;2.62;100.00
57644;BME280;43474;46.510;6.686;2023-04-08T04:01:04;96633.53;;;2.68;100.00
57644;BME280;43474;46.510;6.686;2023-04-08T04:03:30;96625.25;;;2.65;100.00
57644;BME280;43474;46.510;6.686;2023-04-08T04:05:55;96625.06;;;2.66;100.00
57644;BME280;43474;46.510;6.686;2023-04-08T04:08:21;96622.25;;;2.68;100.00
57644;BME280;43474;46.510;6.686;2023-04-08T04:10:47;96629.28;;;2.67;100.00
57644;BME280;43474;46.510;6.686;2023-04-08T04:13:12;96643.63;;;2.86;100.00
57644;BME280;43474;46.510;6.686;2023-04-08T04:15:39;96656.63;;;2.94;100.00
57644;BME280;43474;46.510;6.686;2023-04-08T04:18:06;96641.63;;;2.88;100.00
57644;BME280;43474;46.510;6.686;2023-04-08T04:20:31;96631.63;;;2.92;100.00
57644;BME280;43474;46.510;6.686;2023-04-08T04:22:57;96643.53;;;3.09;100.00
57644;BME280;43474;46.510;6.686;2023-04-08T04:25:23;96643.59;;;3.16;100.00
57644;BME280;43474;46.510;6.686;2023-04-08T04:27:49;96645.56;;;3.28;100.00
57644;BME280;43474;46.510;6.686;2023-04-08T04:30:16;96629.13;;;3.20;100.00
57644;BME280;43474;46.510;6.686;2023-04-08T04:32:42;96649.41;;;3.32;100.00
57644;BME280;43474;46.510;6.686;2023-04-08T04:35:11;96651.72;;;3.42;100.00
57644;BME280;43474;46.510;6.686;2023-04-08T04:37:37;96646.69;;;3.41;100.00
57644;BME280;43474;46.510;6.686;2023-04-08T04:40:03;96649.81;;;3.51;100.00
57644;BME280;43474;46.510;6.686;2023-04-08T04:42:30;96653.44;;;3.50;100.00
57644;BME280;43474;46.510;6.686;2023-04-08T04:44:55;96650.75;;;3.43;100.00
57644;BME280;43474;46.510;6.686;2023-04-08T04:47:22;96651.34;;;3.24;100.00
57644;BME280;43474;46.510;6.686;2023-04-08T04:49:47;96661.38;;;3.20;100.00
57644;BME280;43474;46.510;6.686;2023-04-08T04:52:13;96664.88;;;3.13;100.00
57644;BME280;43474;46.510;6.686;2023-04-08T04:54:38;96671.13;;;3.11;100.00
57644;BME280;43474;46.510;6.686;2023-04-08T04:57:04;96669.97;;;3.14;100.00
57644;BME280;43474;46.510;6.686;2023-04-08T04:59:29;96678.44;;;3.16;100.00
57644;BME280;43474;46.510;6.686;2023-04-08T05:01:55;96672.19;;;3.17;100.00
57644;BME280;43474;46.510;6.686;2023-04-08T05:04:24;96681.53;;;3.05;100.00
57644;BME280;43474;46.510;6.686;2023-04-08T05:06:50;96680.00;;;2.96;100.00
57644;BME280;43474;46.510;6.686;2023-04-08T05:09:16;96688.13;;;2.86;100.00
57644;BME280;43474;46.510;6.686;2023-04-08T05:11:41;96686.50;;;2.70;100.00
57644;BME280;43474;46.510;6.686;2023-04-08T05:14:07;96698.50;;;2.65;100.00
57644;BME280;43474;46.510;6.686;2023-04-08T05:16:33;96690.56;;;2.73;100.00
57644;BME280;43474;46.510;6.686;2023-04-08T05:18:58;96694.91;;;2.66;100.00
57644;BME280;43474;46.510;6.686;2023-04-08T05:21:24;96692.28;;;2.66;100.00
57644;BME280;43474;46.510;6.686;2023-04-08T05:23:50;96688.66;;;2.67;100.00
57644;BME280;43474;46.510;6.686;2023-04-08T05:26:21;96689.66;;;2.66;100.00
57644;BME280;43474;46.510;6.686;2023-04-08T05:28:47;96689.47;;;2.67;100.00
57644;BME280;43474;46.510;6.686;2023-04-08T05:31:17;96696.06;;;2.63;100.00
57644;BME280;43474;46.510;6.686;2023-04-08T05:33:43;96685.69;;;2.55;100.00
57644;BME280;43474;46.510;6.686;2023-04-08T05:36:12;96697.97;;;2.54;100.00
57644;BME280;43474;46.510;6.686;2023-04-08T05:38:39;96700.84;;;2.45;100.00
57644;BME280;43474;46.510;6.686;2023-04-08T05:41:05;96698.75;;;2.40;100.00
57644;BME280;43474;46.510;6.686;2023-04-08T05:43:34;96696.84;;;2.34;100.00
57644;BME280;43474;46.510;6.686;2023-04-08T05:46:13;96709.03;;;2.42;100.00
57644;BME280;43474;46.510;6.686;2023-04-08T05:48:38;96708.50;;;2.46;100.00
57644;BME280;43474;46.510;6.686;2023-04-08T05:51:04;96704.00;;;2.55;100.00
57644;BME280;43474;46.510;6.686;2023-04-08T05:53:30;96718.63;;;2.64;100.00
57644;BME280;43474;46.510;6.686;2023-04-08T05:55:55;96719.59;;;2.78;100.00
57644;BME280;43474;46.510;6.686;2023-04-08T05:58:21;96721.69;;;2.82;100.00
57644;BME280;43474;46.510;6.686;2023-04-08T06:00:46;96722.78;;;2.88;100.00
57644;BME280;43474;46.510;6.686;2023-04-08T06:03:12;96714.91;;;2.88;100.00
57644;BME280;43474;46.510;6.686;2023-04-08T06:05:38;96709.50;;;3.04;100.00
57644;BME280;43474;46.510;6.686;2023-04-08T06:08:03;96710.94;;;3.07;100.00
57644;BME280;43474;46.510;6.686;2023-04-08T06:10:29;96712.66;;;3.15;100.00
57644;BME280;43474;46.510;6.686;2023-04-08T06:12:55;96716.25;;;3.28;100.00
57644;BME280;43474;46.510;6.686;2023-04-08T06:15:20;96727.00;;;3.33;100.00
57644;BME280;43474;46.510;6.686;2023-04-08T06:17:46;96733.47;;;3.37;100.00
57644;BME280;43474;46.510;6.686;2023-04-08T06:20:12;96722.31;;;3.29;100.00
57644;BME280;43474;46.510;6.686;2023-04-08T06:22:37;96722.19;;;3.37;100.00
57644;BME280;43474;46.510;6.686;2023-04-08T06:25:03;96732.75;;;3.44;100.00
57644;BME280;43474;46.510;6.686;2023-04-08T06:27:28;96718.22;;;3.41;100.00
57644;BME280;43474;46.510;6.686;2023-04-08T06:29:54;96732.72;;;3.58;100.00
57644;BME280;43474;46.510;6.686;2023-04-08T06:32:20;96735.31;;;3.73;100.00
57644;BME280;43474;46.510;6.686;2023-04-08T06:34:47;96714.66;;;3.85;100.00
57644;BME280;43474;46.510;6.686;2023-04-08T06:37:12;96724.44;;;3.98;100.00
57644;BME280;43474;46.510;6.686;2023-04-08T06:39:38;96708.34;;;4.01;100.00
57644;BME280;43474;46.510;6.686;2023-04-08T06:42:04;96732.19;;;4.27;100.00
57644;BME280;43474;46.510;6.686;2023-04-08T06:44:30;96729.44;;;4.35;100.00
57644;BME280;43474;46.510;6.686;2023-04-08T06:46:56;96730.63;;;4.61;100.00
57644;BME280;43474;46.510;6.686;2023-04-08T06:49:22;96731.19;;;4.84;100.00
57644;BME280;43474;46.510;6.686;2023-04-08T06:51:47;96729.00;;;5.84;100.00
57644;BME280;43474;46.510;6.686;2023-04-08T06:54:13;96711.16;;;8.08;100.00
57644;BME280;43474;46.510;6.686;2023-04-08T06:56:38;96710.69;;;9.48;100.00
57644;BME280;43474;46.510;6.686;2023-04-08T06:59:04;96701.25;;;10.30;100.00
57644;BME280;43474;46.510;6.686;2023-04-08T07:01:30;96713.47;;;10.43;98.20
57644;BME280;43474;46.510;6.686;2023-04-08T07:03:57;96718.38;;;10.70;94.23
57644;BME280;43474;46.510;6.686;2023-04-08T07:06:22;96724.56;;;11.10;94.60
57644;BME280;43474;46.510;6.686;2023-04-08T07:08:48;96726.13;;;11.47;91.16
57644;BME280;43474;46.510;6.686;2023-04-08T07:11:14;96720.66;;;11.65;89.60
57644;BME280;43474;46.510;6.686;2023-04-08T07:13:40;96726.88;;;12.11;88.38
57644;BME280;43474;46.510;6.686;2023-04-08T07:16:05;96729.41;;;12.51;85.36
57644;BME280;43474;46.510;6.686;2023-04-08T07:18:31;96724.09;;;12.85;80.91
57644;BME280;43474;46.510;6.686;2023-04-08T07:20:57;96728.59;;;12.67;81.02
57644;BME280;43474;46.510;6.686;2023-04-08T07:23:25;96732.09;;;12.68;80.93
57644;BME280;43474;46.510;6.686;2023-04-08T07:25:52;96726.75;;;12.85;79.87
57644;BME280;43474;46.510;6.686;2023-04-08T07:28:19;96721.06;;;13.32;79.78
57644;BME280;43474;46.510;6.686;2023-04-08T07:30:45;96728.69;;;13.67;77.42
57644;BME280;43474;46.510;6.686;2023-04-08T07:33:11;96726.28;;;14.14;76.40
57644;BME280;43474;46.510;6.686;2023-04-08T07:35:39;96725.34;;;14.53;75.05
57644;BME280;43474;46.510;6.686;2023-04-08T07:38:06;96732.22;;;14.21;71.68
57644;BME280;43474;46.510;6.686;2023-04-08T07:40:36;96741.38;;;14.53;73.98
57644;BME280;43474;46.510;6.686;2023-04-08T07:43:01;96736.84;;;14.90;74.76
57644;BME280;43474;46.510;6.686;2023-04-08T07:45:27;96728.78;;;15.22;73.96
57644;BME280;43474;46.510;6.686;2023-04-08T07:47:52;96739.63;;;15.48;70.43
57644;BME280;43474;46.510;6.686;2023-04-08T07:50:18;96732.56;;;15.79;70.63
57644;BME280;43474;46.510;6.686;2023-04-08T07:52:43;96729.88;;;15.74;66.82
57644;BME280;43474;46.510;6.686;2023-04-08T07:55:09;96737.63;;;15.81;63.53
57644;BME280;43474;46.510;6.686;2023-04-08T07:57:35;96737.53;;;15.60;66.29
57644;BME280;43474;46.510;6.686;2023-04-08T08:00:00;96746.19;;;15.77;64.56
57644;BME280;43474;46.510;6.686;2023-04-08T08:02:26;96744.41;;;16.03;64.88
57644;BME280;43474;46.510;6.686;2023-04-08T08:04:51;96747.59;;;16.00;63.93
57644;BME280;43474;46.510;6.686;2023-04-08T08:07:17;96751.34;;;15.99;69.09
57644;BME280;43474;46.510;6.686;2023-04-08T08:09:42;96752.34;;;15.83;64.15
57644;BME280;43474;46.510;6.686;2023-04-08T08:12:08;96754.78;;;15.90;63.39
57644;BME280;43474;46.510;6.686;2023-04-08T08:14:33;96755.59;;;16.00;60.05
57644;BME280;43474;46.510;6.686;2023-04-08T08:16:59;96757.78;;;15.51;61.39
57644;BME280;43474;46.510;6.686;2023-04-08T08:19:25;96761.28;;;14.72;62.93
57644;BME280;43474;46.510;6.686;2023-04-08T08:21:51;96752.25;;;15.20;63.18
57644;BME280;43474;46.510;6.686;2023-04-08T08:24:16;96752.91;;;15.90;64.96
57644;BME280;43474;46.510;6.686;2023-04-08T08:26:42;96758.13;;;16.38;61.76
57644;BME280;43474;46.510;6.686;2023-04-08T08:29:09;96758.69;;;16.70;59.94
57644;BME280;43474;46.510;6.686;2023-04-08T08:31:35;96760.06;;;16.98;59.42
57644;BME280;43474;46.510;6.686;2023-04-08T08:34:00;96760.59;;;16.85;60.08
57644;BME280;43474;46.510;6.686;2023-04-08T08:36:27;96757.38;;;16.93;57.47
57644;BME280;43474;46.510;6.686;2023-04-08T08:38:52;96752.28;;;16.61;62.59
57644;BME280;43474;46.510;6.686;2023-04-08T08:41:19;96755.47;;;16.63;58.89
57644;BME280;43474;46.510;6.686;2023-04-08T08:43:45;96767.28;;;16.72;61.45
57644;BME280;43474;46.510;6.686;2023-04-08T08:46:15;96743.69;;;16.49;56.74
57644;BME280;43474;46.510;6.686;2023-04-08T08:48:40;96750.09;;;16.43;62.31
57644;BME280;43474;46.510;6.686;2023-04-08T08:51:10;96759.44;;;16.30;59.03
57644;BME280;43474;46.510;6.686;2023-04-08T08:53:36;96760.78;;;16.22;59.71
57644;BME280;43474;46.510;6.686;2023-04-08T08:56:03;96766.97;;;16.43;57.82
57644;BME280;43474;46.510;6.686;2023-04-08T08:58:29;96759.91;;;15.96;59.75
57644;BME280;43474;46.510;6.686;2023-04-08T09:00:55;96754.44;;;15.71;62.88
57644;BME280;43474;46.510;6.686;2023-04-08T09:03:24;96773.06;;;16.23;60.69
57644;BME280;43474;46.510;6.686;2023-04-08T09:05:54;96772.41;;;15.38;60.10
57644;BME280;43474;46.510;6.686;2023-04-08T09:08:34;96775.69;;;16.03;58.17
57644;BME280;43474;46.510;6.686;2023-04-08T09:11:14;96777.53;;;15.92;59.36
57644;BME280;43474;46.510;6.686;2023-04-08T09:13:40;96774.34;;;14.73;61.59
57644;BME280;43474;46.510;6.686;2023-04-08T09:16:08;96770.50;;;14.10;63.01
57644;BME280;43474;46.510;6.686;2023-04-08T09:18:36;96770.81;;;14.14;61.34
57644;BME280;43474;46.510;6.686;2023-04-08T09:21:03;96777.91;;;13.42;65.66
57644;BME280;43474;46.510;6.686;2023-04-08T09:23:43;96773.03;;;12.22;65.93
57644;BME280;43474;46.510;6.686;2023-04-08T09:26:20;96778.41;;;12.10;68.07
57644;BME280;43474;46.510;6.686;2023-04-08T09:29:02;96773.78;;;12.05;71.33
57644;BME280;43474;46.510;6.686;2023-04-08T09:31:38;96780.34;;;12.14;67.52
57644;BME280;43474;46.510;6.686;2023-04-08T09:34:14;96771.41;;;12.66;67.94
57644;BME280;43474;46.510;6.686;2023-04-08T09:36:42;96753.78;;;13.49;65.55
57644;BME280;43474;46.510;6.686;2023-04-08T09:39:08;96763.19;;;12.84;68.15
57644;BME280;43474;46.510;6.686;2023-04-08T09:41:36;96782.59;;;12.23;75.83
57644;BME280;43474;46.510;6.686;2023-04-08T09:44:06;96768.72;;;12.04;76.69
57644;BME280;43474;46.510;6.686;2023-04-08T09:46:35;96771.00;;;11.48;75.75
57644;BME280;43474;46.510;6.686;2023-04-08T09:49:11;96769.44;;;11.12;78.77
57644;BME280;43474;46.510;6.686;2023-04-08T09:51:52;96771.88;;;12.46;75.43
57644;BME280;43474;46.510;6.686;2023-04-08T09:54:30;96761.16;;;13.86;72.87
57644;BME280;43474;46.510;6.686;2023-04-08T10:00:22;96750.41;;;14.84;68.13
57644;BME280;43474;46.510;6.686;2023-04-08T10:03:17;96760.69;;;15.44;67.59
57644;BME280;43474;46.510;6.686;2023-04-08T10:05:47;96744.41;;;16.09;67.83
57644;BME280;43474;46.510;6.686;2023-04-08T10:08:13;96744.38;;;15.93;61.97
57644;BME280;43474;46.510;6.686;2023-04-08T10:10:40;96751.94;;;16.12;63.24
57644;BME280;43474;46.510;6.686;2023-04-08T10:13:06;96747.09;;;16.14;63.44
57644;BME280;43474;46.510;6.686;2023-04-08T10:15:33;96746.16;;;16.81;64.30
57644;BME280;43474;46.510;6.686;2023-04-08T10:23:02;96750.88;;;16.18;60.96
57644;BME280;43474;46.510;6.686;2023-04-08T10:30:48;96740.69;;;14.13;64.72
57644;BME280;43474;46.510;6.686;2023-04-08T10:33:33;96733.44;;;14.36;61.13
57644;BME280;43474;46.510;6.686;2023-04-08T10:36:09;96729.94;;;13.81;65.74
57644;BME280;43474;46.510;6.686;2023-04-08T10:38:39;96710.09;;;14.21;65.34
57644;BME280;43474;46.510;6.686;2023-04-08T10:41:06;96726.13;;;15.22;61.42
57644;BME280;43474;46.510;6.686;2023-04-08T10:43:33;96736.69;;;15.55;59.92
57644;BME280;43474;46.510;6.686;2023-04-08T10:45:59;96736.59;;;15.82;56.83
57644;BME280;43474;46.510;6.686;2023-04-08T10:48:25;96734.50;;;15.99;56.49
57644;BME280;43474;46.510;6.686;2023-04-08T10:50:58;96726.88;;;15.13;57.32
57644;BME280;43474;46.510;6.686;2023-04-08T10:53:31;96733.50;;;14.46;58.29
57644;BME280;43474;46.510;6.686;2023-04-08T10:56:13;96723.06;;;15.51;61.96
57644;BME280;43474;46.510;6.686;2023-04-08T10:58:48;96716.31;;;16.01;57.15
57644;BME280;43474;46.510;6.686;2023-04-08T11:01:14;96730.56;;;16.22;59.10
57644;BME280;43474;46.510;6.686;2023-04-08T11:03:41;96722.81;;;16.46;55.30
57644;BME280;43474;46.510;6.686;2023-04-08T11:06:07;96721.50;;;16.69;56.95
57644;BME280;43474;46.510;6.686;2023-04-08T11:08:34;96719.09;;;17.03;52.87
57644;BME280;43474;46.510;6.686;2023-04-08T11:11:01;96716.84;;;17.56;53.31
57644;BME280;43474;46.510;6.686;2023-04-08T11:13:29;96721.72;;;17.34;53.26
57644;BME280;43474;46.510;6.686;2023-04-08T11:15:56;96710.06;;;17.74;58.15
57644;BME280;43474;46.510;6.686;2023-04-08T11:18:23;96696.25;;;18.06;54.18
57644;BME280;43474;46.510;6.686;2023-04-08T11:20:52;96714.78;;;17.97;48.76
57644;BME280;43474;46.510;6.686;2023-04-08T11:23:18;96711.41;;;17.76;54.23
57644;BME280;43474;46.510;6.686;2023-04-08T11:25:45;96718.63;;;17.86;56.99
57644;BME280;43474;46.510;6.686;2023-04-08T11:28:11;96697.69;;;17.88;57.67
57644;BME280;43474;46.510;6.686;2023-04-08T11:30:41;96686.59;;;18.00;51.67
57644;BME280;43474;46.510;6.686;2023-04-08T11:33:07;96682.19;;;18.19;52.66
57644;BME280;43474;46.510;6.686;2023-04-08T11:35:33;96701.09;;;17.99;56.52
57644;BME280;43474;46.510;6.686;2023-04-08T11:37:59;96689.03;;;18.80;51.37
57644;BME280;43474;46.510;6.686;2023-04-08T11:40:24;96701.09;;;18.82;49.50
57644;BME280;43474;46.510;6.686;2023-04-08T11:42:51;96709.06;;;18.53;53.64
57644;BME280;43474;46.510;6.686;2023-04-08T11:45:19;96693.81;;;18.49;53.88
57644;BME280;43474;46.510;6.686;2023-04-08T11:47:46;96690.56;;;18.52;49.85
57644;BME280;43474;46.510;6.686;2023-04-08T11:50:21;96688.22;;;18.45;53.61
57644;BME280;43474;46.510;6.686;2023-04-08T11:52:49;96677.50;;;18.74;50.53
57644;BME280;43474;46.510;6.686;2023-04-08T11:55:28;96688.88;;;18.27;48.00
57644;BME280;43474;46.510;6.686;2023-04-08T11:57:55;96695.69;;;18.09;47.94
57644;BME280;43474;46.510;6.686;2023-04-08T12:00:22;96702.75;;;17.90;50.60
57644;BME280;43474;46.510;6.686;2023-04-08T12:02:48;96698.81;;;17.67;49.43
57644;BME280;43474;46.510;6.686;2023-04-08T12:05:15;96688.72;;;17.48;52.55
57644;BME280;43474;46.510;6.686;2023-04-08T12:07:42;96717.41;;;17.43;49.07
57644;BME280;43474;46.510;6.686;2023-04-08T12:10:09;96701.63;;;17.36;49.02
57644;BME280;43474;46.510;6.686;2023-04-08T12:12:36;96686.31;;;17.42;48.42
57644;BME280;43474;46.510;6.686;2023-04-08T12:15:01;96694.16;;;17.98;52.36
57644;BME280;43474;46.510;6.686;2023-04-08T12:17:27;96695.81;;;18.33;54.73
57644;BME280;43474;46.510;6.686;2023-04-08T12:19:53;96703.28;;;17.97;51.84
57644;BME280;43474;46.510;6.686;2023-04-08T12:22:18;96699.72;;;18.51;54.18
57644;BME280;43474;46.510;6.686;2023-04-08T12:24:44;96688.75;;;18.42;48.01
57644;BME280;43474;46.510;6.686;2023-04-08T12:27:09;96685.88;;;18.68;50.71
57644;BME280;43474;46.510;6.686;2023-04-08T12:29:35;96697.03;;;18.51;47.76
57644;BME280;43474;46.510;6.686;2023-04-08T12:32:01;96706.91;;;18.55;48.04
57644;BME280;43474;46.510;6.686;2023-04-08T12:34:28;96697.09;;;18.41;47.08
57644;BME280;43474;46.510;6.686;2023-04-08T12:36:54;96698.47;;;18.33;48.36
57644;BME280;43474;46.510;6.686;2023-04-08T12:39:20;96705.25;;;18.59;50.81
57644;BME280;43474;46.510;6.686;2023-04-08T12:41:46;96694.06;;;18.52;49.83
57644;BME280;43474;46.510;6.686;2023-04-08T12:44:12;96664.50;;;18.18;46.62
57644;BME280;43474;46.510;6.686;2023-04-08T12:46:38;96697.88;;;18.02;50.22
57644;BME280;43474;46.510;6.686;2023-04-08T12:49:03;96669.50;;;17.96;49.01
57644;BME280;43474;46.510;6.686;2023-04-08T12:51:29;96689.41;;;17.69;45.50
57644;BME280;43474;46.510;6.686;2023-04-08T12:53:55;96681.38;;;17.74;47.43
57644;BME280;43474;46.510;6.686;2023-04-08T12:56:21;96680.00;;;17.87;45.72
57644;BME280;43474;46.510;6.686;2023-04-08T12:58:46;96662.78;;;17.93;49.42
57644;BME280;43474;46.510;6.686;2023-04-08T13:01:12;96692.50;;;18.46;49.87
57644;BME280;43474;46.510;6.686;2023-04-08T13:03:38;96680.22;;;17.96;42.88
57644;BME280;43474;46.510;6.686;2023-04-08T13:06:04;96676.75;;;17.95;45.87
57644;BME280;43474;46.510;6.686;2023-04-08T13:08:29;96676.88;;;18.14;46.45
57644;BME280;43474;46.510;6.686;2023-04-08T13:10:55;96673.25;;;18.34;50.51
57644;BME280;43474;46.510;6.686;2023-04-08T13:13:21;96663.31;;;18.00;46.08
57644;BME280;43474;46.510;6.686;2023-04-08T13:15:47;96662.75;;;17.98;44.74